createdAt,value
2019-03-03T00:01:50.255Z,1.50
2019-03-03T00:04:19.762Z,1.75
2019-03-03T00:06:49.326Z,1.52
2019-03-03T00:09:18.918Z,1.50
2019-03-03T00:11:48.398Z,1.15
2019-03-03T00:14:17.951Z,1.70
2019-03-03T00:16:47.434Z,1.80
2019-03-03T00:19:16.905Z,1.55
2019-03-03T00:21:46.419Z,1.62
2019-03-03T00:24:15.929Z,1.57
2019-03-03T00:26:45.416Z,1.42
2019-03-03T00:29:16.981Z,1.37
2019-03-03T00:31:46.163Z,1.30
2019-03-03T00:34:15.693Z,1.47
2019-03-03T00:37:04.381Z,1.77
2019-03-03T00:40:11.221Z,1.72
2019-03-03T00:42:45.618Z,1.57
2019-03-03T00:45:32.727Z,1.52
2019-03-03T00:48:13.685Z,1.50
2019-03-03T00:50:56.315Z,1.52
2019-03-03T00:53:48.088Z,1.50
2019-03-03T00:56:48.606Z,1.50
2019-03-03T00:59:35.664Z,1.70
2019-03-03T01:02:27.201Z,1.52
2019-03-03T01:05:29.833Z,1.37
2019-03-03T01:08:25.664Z,1.42
2019-03-03T01:11:14.061Z,1.57
2019-03-03T01:14:05.444Z,1.50
2019-03-03T01:16:53.918Z,1.30
2019-03-03T01:19:40.694Z,1.37
2019-03-03T01:22:34.795Z,2.05
2019-03-03T01:25:04.727Z,1.32
2019-03-03T01:27:34.191Z,1.47
2019-03-03T01:30:04.556Z,1.62
2019-03-03T01:32:34.120Z,2.05
2019-03-03T01:35:03.606Z,1.65
2019-03-03T01:37:33.153Z,1.65
2019-03-03T01:40:02.616Z,1.52
2019-03-03T01:42:32.129Z,1.70
2019-03-03T01:45:01.653Z,1.12
2019-03-03T01:47:31.119Z,1.67
2019-03-03T01:50:00.579Z,1.82
2019-03-03T01:52:30.133Z,1.75
2019-03-03T01:54:59.602Z,1.70
2019-03-03T01:57:29.193Z,1.55
2019-03-03T01:59:58.735Z,1.45
2019-03-03T02:02:28.343Z,1.55
2019-03-03T02:04:57.916Z,1.30
2019-03-03T02:07:27.475Z,1.75
2019-03-03T02:09:56.936Z,1.72
2019-03-03T02:12:26.419Z,1.37
2019-03-03T02:14:55.892Z,1.60
2019-03-03T02:17:25.471Z,1.47
2019-03-03T02:19:55.043Z,1.25
2019-03-03T02:22:25.247Z,1.30
2019-03-03T02:24:54.814Z,1.47
2019-03-03T02:27:24.404Z,1.70
2019-03-03T02:29:53.875Z,1.32
2019-03-03T02:32:23.351Z,1.70
2019-03-03T02:34:52.861Z,1.40
2019-03-03T02:37:22.333Z,1.62
2019-03-03T02:39:52.068Z,1.55
2019-03-03T02:42:21.554Z,1.40
2019-03-03T02:44:51.829Z,1.70
2019-03-03T02:47:21.333Z,1.40
2019-03-03T02:49:50.870Z,1.52
2019-03-03T02:52:20.339Z,1.67
2019-03-03T02:54:49.810Z,1.35
2019-03-03T02:57:19.341Z,1.42
2019-03-03T02:59:48.819Z,1.67
2019-03-03T03:02:43.648Z,1.82
2019-03-03T03:05:14.963Z,1.70
2019-03-03T03:08:05.991Z,1.25
2019-03-03T03:10:58.405Z,1.50
2019-03-03T03:13:54.158Z,1.60
2019-03-03T03:16:54.609Z,1.50
2019-03-03T03:19:46.012Z,1.52
2019-03-03T03:22:26.039Z,1.65
2019-03-03T03:25:14.491Z,1.37
2019-03-03T03:27:55.637Z,1.50
2019-03-03T03:30:37.538Z,1.77
2019-03-03T03:33:21.650Z,1.65
2019-03-03T03:36:02.722Z,1.22
2019-03-03T03:38:50.985Z,1.30
2019-03-03T03:41:37.594Z,1.30
2019-03-03T03:44:28.977Z,1.45
2019-03-03T03:47:20.393Z,1.60
2019-03-03T03:50:08.715Z,1.98
2019-03-03T03:52:56.157Z,1.30
2019-03-03T03:55:39.493Z,1.40
2019-03-03T03:58:26.877Z,1.35
2019-03-03T04:01:04.674Z,1.55
2019-03-03T04:03:58.947Z,1.40
2019-03-03T04:06:41.901Z,1.30
2019-03-03T04:09:32.843Z,1.32
2019-03-03T04:12:24.037Z,1.32
2019-03-03T04:15:18.562Z,1.17
2019-03-03T04:18:19.352Z,1.05
2019-03-03T04:21:13.894Z,1.62
2019-03-03T04:24:02.260Z,1.20
2019-03-03T04:27:08.852Z,1.45
2019-03-03T04:30:00.386Z,1.20
2019-03-03T04:32:51.453Z,1.50
2019-03-03T04:35:39.808Z,1.40
2019-03-03T04:38:34.284Z,1.35
2019-03-03T04:41:15.143Z,1.40
2019-03-03T04:44:03.674Z,1.10
2019-03-03T04:46:52.640Z,1.15
2019-03-03T04:49:41.084Z,1.40
2019-03-03T04:52:32.109Z,1.20
2019-03-03T04:55:32.961Z,1.30
2019-03-03T04:58:30.029Z,1.40
2019-03-03T05:01:24.632Z,1.37
2019-03-03T05:04:15.582Z,1.30
2019-03-03T05:07:00.795Z,1.12
2019-03-03T05:09:56.902Z,1.40
2019-03-03T05:12:45.369Z,1.50
2019-03-03T05:15:33.831Z,1.30
2019-03-03T05:18:17.622Z,1.42
2019-03-03T05:20:49.083Z,1.32
2019-03-03T05:23:18.717Z,1.42
2019-03-03T05:25:48.988Z,1.50
2019-03-03T05:28:18.509Z,1.37
2019-03-03T05:30:49.275Z,1.42
2019-03-03T05:33:18.775Z,1.57
2019-03-03T05:35:48.359Z,1.60
2019-03-03T05:38:17.910Z,1.32
2019-03-03T05:40:47.421Z,1.80
2019-03-03T05:43:17.083Z,1.30
2019-03-03T05:45:46.589Z,1.32
2019-03-03T05:48:16.108Z,1.40
2019-03-03T05:50:45.573Z,1.30
2019-03-03T05:53:15.099Z,1.27
2019-03-03T05:55:44.583Z,1.40
2019-03-03T05:58:14.178Z,1.20
2019-03-03T06:00:43.707Z,1.40
2019-03-03T06:03:13.487Z,1.20
2019-03-03T06:05:42.939Z,1.15
2019-03-03T06:08:12.482Z,1.10
2019-03-03T06:10:41.958Z,1.40
2019-03-03T06:13:11.444Z,1.05
2019-03-03T06:15:40.968Z,1.40
2019-03-03T06:18:10.471Z,1.32
2019-03-03T06:20:39.949Z,1.20
2019-03-03T06:23:09.436Z,1.27
2019-03-03T06:25:38.913Z,1.20
2019-03-03T06:28:08.575Z,1.20
2019-03-03T06:30:38.036Z,1.20
2019-03-03T06:33:07.691Z,1.40
2019-03-03T06:35:37.218Z,1.30
2019-03-03T06:38:06.962Z,1.30
2019-03-03T06:40:36.428Z,0.90
2019-03-03T06:43:05.931Z,1.20
2019-03-03T06:45:35.425Z,1.35
2019-03-03T06:48:04.927Z,1.17
2019-03-03T06:50:34.474Z,1.65
2019-03-03T06:53:04.043Z,1.32
2019-03-03T06:55:33.607Z,1.30
2019-03-03T06:58:03.188Z,0.90
2019-03-03T07:00:32.690Z,1.15
2019-03-03T07:03:02.304Z,1.10
2019-03-03T07:05:31.822Z,1.12
2019-03-03T07:08:02.195Z,1.40
2019-03-03T07:10:31.666Z,1.32
2019-03-03T07:13:01.177Z,1.27
2019-03-03T07:15:30.635Z,1.20
2019-03-03T07:18:00.117Z,1.40
2019-03-03T07:20:29.710Z,1.37
2019-03-03T07:22:59.183Z,1.17
2019-03-03T07:25:28.677Z,1.30
2019-03-03T07:27:58.226Z,1.22
2019-03-03T07:30:27.691Z,1.60
2019-03-03T07:33:15.220Z,1.10
2019-03-03T07:35:44.739Z,1.20
2019-03-03T07:38:14.234Z,1.60
2019-03-03T07:40:43.713Z,1.10
2019-03-03T07:43:13.284Z,1.02
2019-03-03T07:45:43.283Z,0.95
2019-03-03T07:48:12.757Z,1.12
2019-03-03T07:50:42.370Z,1.30
2019-03-03T07:53:11.860Z,1.40
2019-03-03T07:55:41.383Z,1.52
2019-03-03T07:58:10.875Z,1.62
2019-03-03T08:00:40.419Z,1.30
2019-03-03T08:03:09.876Z,1.22
2019-03-03T08:05:39.452Z,1.37
2019-03-03T08:08:08.937Z,1.12
2019-03-03T08:10:38.501Z,1.15
2019-03-03T08:13:09.474Z,1.30
2019-03-03T08:15:39.457Z,1.47
2019-03-03T08:18:08.957Z,1.27
2019-03-03T08:20:38.596Z,1.42
2019-03-03T08:23:08.264Z,1.32
2019-03-03T08:25:37.754Z,1.27
2019-03-03T08:28:07.346Z,1.52
2019-03-03T08:30:36.849Z,1.05
2019-03-03T08:33:06.364Z,1.30
2019-03-03T08:35:35.925Z,0.88
2019-03-03T08:38:05.554Z,1.25
2019-03-03T08:40:35.139Z,1.20
2019-03-03T08:43:12.315Z,1.62
2019-03-03T08:45:56.399Z,1.00
2019-03-03T08:48:47.845Z,1.10
2019-03-03T08:51:39.390Z,1.00
2019-03-03T08:54:30.719Z,0.88
2019-03-03T08:57:24.911Z,1.15
2019-03-03T09:00:01.247Z,1.37
2019-03-03T09:02:48.634Z,1.17
2019-03-03T09:05:46.373Z,1.00
2019-03-03T09:08:33.516Z,1.10
2019-03-03T09:11:10.631Z,0.88
2019-03-03T09:13:58.970Z,0.95
2019-03-03T09:16:49.556Z,0.90
2019-03-03T09:19:26.633Z,0.90
2019-03-03T09:22:24.401Z,1.35
2019-03-03T09:25:30.956Z,1.10
2019-03-03T09:28:28.440Z,1.00
2019-03-03T09:31:04.559Z,0.98
2019-03-03T09:33:51.844Z,1.10
2019-03-03T09:36:38.050Z,1.10
2019-03-03T09:39:33.736Z,0.90
2019-03-03T09:42:13.058Z,0.90
2019-03-03T09:45:01.627Z,0.90
2019-03-03T09:47:39.751Z,1.20
2019-03-03T09:50:16.858Z,0.93
2019-03-03T09:53:17.130Z,0.82
2019-03-03T09:56:00.064Z,0.98
2019-03-03T09:58:47.066Z,0.70
2019-03-03T10:01:22.369Z,1.05
2019-03-03T10:04:01.956Z,0.70
2019-03-03T10:06:53.248Z,0.90
2019-03-03T10:09:47.774Z,0.80
2019-03-03T10:12:32.865Z,1.12
2019-03-03T10:15:20.624Z,1.00
2019-03-03T10:18:05.710Z,1.20
2019-03-03T10:20:49.655Z,1.20
2019-03-03T10:23:50.445Z,0.98
2019-03-03T10:26:47.712Z,1.32
2019-03-03T10:29:54.366Z,1.00
2019-03-03T10:32:36.294Z,1.10
2019-03-03T10:35:28.816Z,1.00
2019-03-03T10:38:15.953Z,1.72
2019-03-03T10:41:07.483Z,1.25
2019-03-03T10:43:57.873Z,1.47
2019-03-03T10:46:37.475Z,1.20
2019-03-03T10:49:44.332Z,1.40
2019-03-03T10:52:20.968Z,1.70
2019-03-03T10:55:09.532Z,1.27
2019-03-03T10:57:53.609Z,1.20
2019-03-03T11:00:41.020Z,1.20
2019-03-03T11:03:23.586Z,1.37
2019-03-03T11:06:30.575Z,1.40
2019-03-03T11:09:16.168Z,1.22
2019-03-03T11:12:04.392Z,1.42
2019-03-03T11:14:51.556Z,1.10
2019-03-03T11:17:52.618Z,1.40
2019-03-03T11:20:43.854Z,1.52
2019-03-03T11:23:37.831Z,1.72
2019-03-03T11:26:32.888Z,1.45
2019-03-03T11:29:13.243Z,1.67
2019-03-03T11:32:01.901Z,1.60
2019-03-03T11:34:56.368Z,1.52
2019-03-03T11:37:44.825Z,1.87
2019-03-03T11:40:55.789Z,1.80
2019-03-03T11:43:47.274Z,1.77
2019-03-03T11:46:35.745Z,2.00
2019-03-03T11:49:27.352Z,1.82
2019-03-03T11:52:20.005Z,1.82
2019-03-03T11:54:55.242Z,2.12
2019-03-03T11:57:40.195Z,1.70
2019-03-03T12:00:20.761Z,2.15
2019-03-03T12:03:18.201Z,2.40
2019-03-03T12:06:06.296Z,2.27
2019-03-03T12:09:07.130Z,1.98
2019-03-03T12:11:58.678Z,2.62
2019-03-03T12:14:52.755Z,2.30
2019-03-03T12:17:28.995Z,3.05
2019-03-03T12:20:29.832Z,2.58
2019-03-03T12:23:13.012Z,2.50
2019-03-03T12:26:00.287Z,2.60
2019-03-03T12:28:47.201Z,2.98
2019-03-03T12:31:24.407Z,2.20
2019-03-03T12:34:09.022Z,2.40
2019-03-03T12:37:07.347Z,3.10
2019-03-03T12:39:45.453Z,3.02
2019-03-03T12:42:33.217Z,2.90
2019-03-03T12:45:23.228Z,2.98
2019-03-03T12:48:11.231Z,3.20
2019-03-03T12:50:58.592Z,2.87
2019-03-03T12:53:56.006Z,2.67
2019-03-03T12:56:44.780Z,2.95
2019-03-03T12:59:36.420Z,2.85
2019-03-03T13:02:28.103Z,3.08
2019-03-03T13:05:15.835Z,2.95
2019-03-03T13:08:13.358Z,3.37
2019-03-03T13:10:58.393Z,3.08
2019-03-03T13:13:41.641Z,3.10
2019-03-03T13:16:36.252Z,2.55
2019-03-03T13:19:21.487Z,3.35
2019-03-03T13:22:13.121Z,3.30
2019-03-03T13:24:53.076Z,3.02
2019-03-03T13:27:29.246Z,2.95
2019-03-03T13:30:13.433Z,2.22
2019-03-03T13:33:02.122Z,2.70
2019-03-03T13:35:53.591Z,2.85
2019-03-03T13:38:48.422Z,2.77
2019-03-03T13:41:40.023Z,2.55
2019-03-03T13:44:10.310Z,2.80
2019-03-03T13:46:40.022Z,2.62
2019-03-03T13:49:09.788Z,2.83
2019-03-03T13:51:39.899Z,2.52
2019-03-03T13:54:09.629Z,2.15
2019-03-03T13:56:39.216Z,2.40
2019-03-03T13:59:08.911Z,2.42
2019-03-03T14:01:38.567Z,2.50
2019-03-03T14:04:08.493Z,1.90
2019-03-03T14:06:38.428Z,2.22
2019-03-03T14:09:10.263Z,2.15
2019-03-03T14:11:40.771Z,2.27
2019-03-03T14:14:10.491Z,2.45
2019-03-03T14:16:40.009Z,2.35
2019-03-03T14:19:09.749Z,2.08
2019-03-03T14:21:39.363Z,2.58
2019-03-03T14:24:09.363Z,2.27
2019-03-03T14:26:39.038Z,1.72
2019-03-03T14:29:08.704Z,1.80
2019-03-03T14:31:39.720Z,1.90
2019-03-03T14:34:09.281Z,2.27
2019-03-03T14:36:38.850Z,2.45
2019-03-03T14:39:08.758Z,1.90
2019-03-03T14:41:38.885Z,2.35
2019-03-03T14:44:08.761Z,1.72
2019-03-03T14:46:38.567Z,1.80
2019-03-03T14:49:08.491Z,1.77
2019-03-03T14:51:38.505Z,2.00
2019-03-03T14:54:08.371Z,1.90
2019-03-03T14:56:37.954Z,1.82
2019-03-03T14:59:07.680Z,2.17
2019-03-03T15:01:37.256Z,2.15
2019-03-03T15:04:06.758Z,1.77
2019-03-03T15:06:36.279Z,1.65
2019-03-03T15:09:15.585Z,1.57
2019-03-03T15:11:45.151Z,1.72
2019-03-03T15:14:14.746Z,1.95
2019-03-03T15:16:44.248Z,1.90
2019-03-03T15:19:13.849Z,2.12
2019-03-03T15:21:43.394Z,1.90
2019-03-03T15:24:13.264Z,1.85
2019-03-03T15:26:42.769Z,1.60
2019-03-03T15:29:12.984Z,1.98
2019-03-03T15:31:42.587Z,1.95
2019-03-03T15:34:13.217Z,2.30
2019-03-03T15:36:42.919Z,1.70
2019-03-03T15:39:13.046Z,1.65
2019-03-03T15:41:43.075Z,1.87
2019-03-03T15:44:12.882Z,2.00
2019-03-03T15:46:42.898Z,1.87
2019-03-03T15:49:12.902Z,1.90
2019-03-03T15:51:43.118Z,2.17
2019-03-03T15:54:13.176Z,1.75
2019-03-03T15:56:43.072Z,1.92
2019-03-03T15:59:13.067Z,1.65
2019-03-03T16:01:42.774Z,1.77
2019-03-03T16:04:13.306Z,1.70
2019-03-03T16:06:43.665Z,1.82
2019-03-03T16:09:16.674Z,1.80
2019-03-03T16:11:46.307Z,2.05
2019-03-03T16:14:16.387Z,1.60
2019-03-03T16:16:46.019Z,1.85
2019-03-03T16:19:16.582Z,1.55
2019-03-03T16:21:46.140Z,2.05
2019-03-03T16:24:16.103Z,1.40
2019-03-03T16:26:45.831Z,1.72
2019-03-03T16:29:15.335Z,1.82
2019-03-03T16:31:44.936Z,1.85
2019-03-03T16:34:14.516Z,1.27
2019-03-03T16:36:44.058Z,1.50
2019-03-03T16:39:14.044Z,1.52
2019-03-03T16:41:43.581Z,1.50
2019-03-03T16:44:14.504Z,1.60
2019-03-03T16:46:44.041Z,1.80
2019-03-03T16:49:13.641Z,1.77
2019-03-03T16:51:43.289Z,1.67
2019-03-03T16:54:12.852Z,2.20
2019-03-03T16:56:42.360Z,2.65
2019-03-03T16:59:11.883Z,3.02
2019-03-03T17:01:41.529Z,3.55
2019-03-03T17:04:11.090Z,3.47
2019-03-03T17:06:40.587Z,2.65
2019-03-03T17:09:11.549Z,2.77
2019-03-03T17:11:41.060Z,2.60
2019-03-03T17:14:10.556Z,2.25
2019-03-03T17:16:40.204Z,2.40
2019-03-03T17:19:09.754Z,2.33
2019-03-03T17:21:39.239Z,2.12
2019-03-03T17:24:08.746Z,2.02
2019-03-03T17:26:38.318Z,2.15
2019-03-03T17:29:07.843Z,2.00
2019-03-03T17:31:37.379Z,2.25
2019-03-03T17:34:13.012Z,1.92
2019-03-03T17:36:38.229Z,2.42
2019-03-03T17:39:09.040Z,2.00
2019-03-03T17:41:39.166Z,2.65
2019-03-03T17:44:08.675Z,2.60
2019-03-03T17:46:38.201Z,2.00
2019-03-03T17:49:07.841Z,1.95
2019-03-03T17:51:38.687Z,2.20
2019-03-03T17:54:10.951Z,2.17
2019-03-03T17:56:40.516Z,2.20
2019-03-03T17:59:10.085Z,2.67
2019-03-03T18:01:39.742Z,2.40
2019-03-03T18:04:09.350Z,3.02
2019-03-03T18:06:39.154Z,2.22
2019-03-03T18:09:09.555Z,2.08
2019-03-03T18:11:39.198Z,1.60
2019-03-03T18:14:08.860Z,2.42
2019-03-03T18:16:38.448Z,2.10
2019-03-03T18:19:08.185Z,4.15
2019-03-03T18:21:37.707Z,6.08
2019-03-03T18:24:07.302Z,8.08
2019-03-03T18:26:36.845Z,10.65
2019-03-03T18:29:06.425Z,12.30
2019-03-03T18:31:35.977Z,11.05
2019-03-03T18:34:05.679Z,10.35
2019-03-03T18:36:35.218Z,10.48
2019-03-03T18:39:06.505Z,9.78
2019-03-03T18:41:36.117Z,8.60
2019-03-03T18:44:05.749Z,9.20
2019-03-03T18:46:35.480Z,8.55
2019-03-03T18:49:05.251Z,8.98
2019-03-03T18:51:34.833Z,8.28
2019-03-03T18:54:04.502Z,8.55
2019-03-03T18:56:34.093Z,7.40
2019-03-03T18:59:04.369Z,10.35
2019-03-03T19:01:33.964Z,18.32
2019-03-03T19:04:03.532Z,27.07
2019-03-03T19:06:34.923Z,51.15
2019-03-03T19:09:05.740Z,77.20
2019-03-03T19:11:35.599Z,128.70
2019-03-03T19:14:05.310Z,129.63
2019-03-03T19:16:34.877Z,153.90
2019-03-03T19:19:04.479Z,151.65
2019-03-03T19:21:33.997Z,144.60
2019-03-03T19:24:03.567Z,139.60
2019-03-03T19:26:33.093Z,138.75
2019-03-03T19:29:02.626Z,131.90
2019-03-03T19:31:32.257Z,127.87
2019-03-03T19:34:01.871Z,121.02
2019-03-03T19:36:31.683Z,122.05
2019-03-03T19:39:01.196Z,113.97
2019-03-03T19:41:30.822Z,107.43
2019-03-03T19:44:00.530Z,103.90
2019-03-03T19:46:30.087Z,101.07
2019-03-03T19:48:59.635Z,97.95
2019-03-03T19:51:29.251Z,96.30
2019-03-03T19:53:58.855Z,91.78
2019-03-03T19:56:28.464Z,88.33
2019-03-03T19:58:58.051Z,84.77
2019-03-03T20:01:27.603Z,80.53
2019-03-03T20:03:57.253Z,77.65
2019-03-03T20:06:26.819Z,74.82
2019-03-03T20:08:56.335Z,74.32
2019-03-03T20:11:25.950Z,69.35
2019-03-03T20:13:55.494Z,65.65
2019-03-03T20:16:25.020Z,64.80
2019-03-03T20:18:54.610Z,63.65
2019-03-03T20:21:24.203Z,61.08
2019-03-03T20:23:53.894Z,58.73
2019-03-03T20:26:23.492Z,56.20
2019-03-03T20:28:53.061Z,53.42
2019-03-03T20:31:22.635Z,50.50
2019-03-03T20:33:52.251Z,51.68
2019-03-03T20:36:21.854Z,49.05
2019-03-03T20:38:51.419Z,46.77
2019-03-03T20:41:21.008Z,46.63
2019-03-03T20:43:50.509Z,43.48
2019-03-03T20:46:20.258Z,41.30
2019-03-03T20:48:49.770Z,38.90
2019-03-03T20:51:19.345Z,41.20
2019-03-03T20:53:48.932Z,35.43
2019-03-03T20:56:18.516Z,35.63
2019-03-03T20:58:48.207Z,35.43
2019-03-03T21:01:17.765Z,32.67
2019-03-03T21:03:47.385Z,34.30
2019-03-03T21:06:17.006Z,33.00
2019-03-03T21:08:46.947Z,30.50
2019-03-03T21:11:16.496Z,30.97
2019-03-03T21:13:46.191Z,29.05
2019-03-03T21:16:16.138Z,26.20
2019-03-03T21:18:45.712Z,26.57
2019-03-03T21:21:15.281Z,25.23
2019-03-03T21:23:45.121Z,24.90
2019-03-03T21:26:14.890Z,25.65
2019-03-03T21:28:44.490Z,24.27
2019-03-03T21:31:14.145Z,22.48
2019-03-03T21:33:43.743Z,22.87
2019-03-03T21:36:13.296Z,21.20
2019-03-03T21:38:42.883Z,21.05
2019-03-03T21:41:12.465Z,20.32
2019-03-03T21:43:42.135Z,18.57
2019-03-03T21:46:11.863Z,19.12
2019-03-03T21:48:41.363Z,18.17
2019-03-03T21:51:10.907Z,17.55
2019-03-03T21:53:40.502Z,17.37
2019-03-03T21:56:10.045Z,17.10
2019-03-03T21:58:39.709Z,17.12
2019-03-03T22:01:09.290Z,15.13
2019-03-03T22:03:39.018Z,16.05
2019-03-03T22:06:08.572Z,14.95
2019-03-03T22:08:38.133Z,14.15
2019-03-03T22:11:07.632Z,14.53
2019-03-03T22:13:37.112Z,14.58
2019-03-03T22:16:06.674Z,13.90
2019-03-03T22:18:36.168Z,13.45
2019-03-03T22:21:05.684Z,12.93
2019-03-03T22:23:35.190Z,11.68
2019-03-03T22:26:04.709Z,12.45
2019-03-03T22:28:36.355Z,11.57
2019-03-03T22:31:05.436Z,11.12
2019-03-03T22:33:35.854Z,10.80
2019-03-03T22:36:05.407Z,9.63
2019-03-03T22:38:34.895Z,10.08
2019-03-03T22:41:04.556Z,9.28
2019-03-03T22:43:35.263Z,9.93
2019-03-03T22:46:04.898Z,9.38
2019-03-03T22:48:34.458Z,9.05
2019-03-03T22:51:03.954Z,8.15
2019-03-03T22:53:33.458Z,7.90
2019-03-03T22:56:03.039Z,8.78
2019-03-03T22:58:32.510Z,7.35
2019-03-03T23:01:09.023Z,8.48
2019-03-03T23:03:47.462Z,6.72
2019-03-03T23:07:07.583Z,7.33
2019-03-03T23:10:11.316Z,6.97
2019-03-03T23:12:56.032Z,6.20
2019-03-03T23:15:40.813Z,6.85
2019-03-03T23:18:29.842Z,6.37
2019-03-03T23:21:22.411Z,5.90
2019-03-03T23:24:35.919Z,5.78
2019-03-03T23:27:05.535Z,5.53
2019-03-03T23:29:35.056Z,5.75
2019-03-03T23:32:04.673Z,5.33
2019-03-03T23:34:34.229Z,5.28
2019-03-03T23:37:03.799Z,4.80
2019-03-03T23:39:33.317Z,5.00
2019-03-03T23:42:02.795Z,5.10
2019-03-03T23:44:32.506Z,4.90
2019-03-03T23:47:02.021Z,5.08
2019-03-03T23:49:31.529Z,4.90
2019-03-03T23:52:00.980Z,4.08
2019-03-03T23:54:30.517Z,4.20
2019-03-03T23:57:01.066Z,4.83
2019-03-03T23:59:30.552Z,3.87
